createdAt,value
2022-10-28T00:01:34.936Z,13.85
2022-10-28T00:04:03.919Z,13.79
2022-10-28T00:06:34.480Z,13.74
2022-10-28T00:09:05.695Z,13.78
2022-10-28T00:11:38.126Z,13.76
2022-10-28T00:14:08.369Z,13.75
2022-10-28T00:16:38.054Z,13.76
2022-10-28T00:19:08.131Z,13.76
2022-10-28T00:21:38.293Z,13.72
2022-10-28T00:24:08.137Z,13.70
2022-10-28T00:26:39.844Z,13.76
2022-10-28T00:29:10.214Z,13.70
2022-10-28T00:31:40.125Z,13.66
2022-10-28T00:34:11.993Z,13.57
2022-10-28T00:36:43.326Z,13.51
2022-10-28T00:39:14.552Z,13.51
2022-10-28T00:41:46.581Z,13.58
2022-10-28T00:44:58.192Z,13.59
2022-10-28T00:47:52.963Z,13.52
2022-10-28T00:50:40.252Z,13.36
2022-10-28T00:53:12.650Z,13.32
2022-10-28T00:55:41.407Z,13.30
2022-10-28T00:58:13.019Z,13.32
2022-10-28T01:00:41.760Z,13.32
2022-10-28T01:03:10.488Z,13.31
2022-10-28T01:05:42.678Z,13.33
2022-10-28T01:08:12.482Z,13.31
2022-10-28T01:10:55.094Z,13.28
2022-10-28T01:13:38.245Z,13.27
2022-10-28T01:16:15.078Z,13.27
2022-10-28T01:19:01.660Z,13.24
2022-10-28T01:21:47.566Z,13.19
2022-10-28T01:24:37.214Z,13.17
2022-10-28T01:27:39.950Z,13.08
2022-10-28T01:30:16.395Z,13.06
2022-10-28T01:33:03.878Z,13.09
2022-10-28T01:35:37.057Z,13.09
2022-10-28T01:38:17.637Z,13.11
2022-10-28T01:40:54.949Z,13.11
2022-10-28T01:43:29.607Z,12.99
2022-10-28T01:46:02.438Z,12.98
2022-10-28T01:51:18.160Z,12.91
2022-10-28T01:53:50.859Z,12.94
2022-10-28T01:56:26.334Z,12.94
2022-10-28T01:58:57.756Z,12.92
2022-10-28T02:01:29.293Z,12.89
2022-10-28T02:03:59.194Z,12.84
2022-10-28T02:06:32.647Z,12.89
2022-10-28T02:09:11.193Z,12.89
2022-10-28T02:11:51.251Z,12.83
2022-10-28T02:14:33.906Z,12.86
2022-10-28T02:17:14.477Z,12.89
2022-10-28T02:19:52.866Z,12.92
2022-10-28T02:22:25.732Z,12.87
2022-10-28T02:25:02.452Z,12.68
2022-10-28T02:27:36.469Z,12.63
2022-10-28T02:30:09.808Z,12.66
2022-10-28T02:32:42.064Z,12.68
2022-10-28T02:35:17.648Z,12.70
2022-10-28T02:37:49.750Z,12.64
2022-10-28T02:40:23.061Z,12.62
2022-10-28T02:42:56.188Z,12.57
2022-10-28T02:45:28.070Z,12.52
2022-10-28T02:47:59.551Z,12.51
2022-10-28T02:50:33.622Z,12.47
2022-10-28T02:53:05.626Z,12.51
2022-10-28T02:55:39.779Z,12.54
2022-10-28T02:58:08.856Z,12.48
2022-10-28T03:00:37.263Z,12.49
2022-10-28T03:03:05.806Z,12.49
2022-10-28T03:05:35.556Z,12.48
2022-10-28T03:08:04.425Z,12.44
2022-10-28T03:10:32.819Z,12.39
2022-10-28T03:13:01.179Z,12.42
2022-10-28T03:15:30.389Z,12.35
2022-10-28T03:17:58.770Z,12.23
2022-10-28T03:20:27.974Z,12.26
2022-10-28T03:22:58.310Z,12.21
2022-10-28T03:25:26.699Z,12.14
2022-10-28T03:27:55.473Z,12.13
2022-10-28T03:30:23.848Z,12.21
2022-10-28T03:32:52.428Z,12.23
2022-10-28T03:35:21.207Z,12.22
2022-10-28T03:37:49.996Z,12.24
2022-10-28T03:40:19.980Z,12.21
2022-10-28T03:42:48.811Z,12.25
2022-10-28T03:45:17.672Z,12.26
2022-10-28T03:47:46.829Z,12.33
2022-10-28T03:50:15.315Z,12.31
2022-10-28T03:52:44.870Z,12.18
2022-10-28T03:55:13.796Z,12.05
2022-10-28T03:57:43.711Z,12.12
2022-10-28T04:00:14.157Z,12.17
2022-10-28T04:02:42.911Z,12.22
2022-10-28T04:05:12.505Z,12.23
2022-10-28T04:07:41.651Z,12.16
2022-10-28T04:10:11.351Z,12.26
2022-10-28T04:12:41.408Z,12.24
2022-10-28T04:15:12.027Z,12.23
2022-10-28T04:17:40.550Z,12.18
2022-10-28T04:20:10.126Z,12.10
2022-10-28T04:22:39.429Z,12.06
2022-10-28T04:25:09.102Z,12.07
2022-10-28T04:27:37.520Z,12.04
2022-10-28T04:30:08.357Z,12.00
2022-10-28T04:32:38.215Z,12.09
2022-10-28T04:35:07.906Z,12.08
2022-10-28T04:37:36.473Z,12.17
2022-10-28T04:40:06.530Z,12.23
2022-10-28T04:42:35.163Z,12.22
2022-10-28T04:45:03.893Z,12.13
2022-10-28T04:47:32.322Z,12.13
2022-10-28T04:50:03.455Z,12.13
2022-10-28T04:52:32.063Z,12.09
2022-10-28T04:55:00.752Z,12.07
2022-10-28T04:57:29.195Z,12.14
2022-10-28T04:59:58.435Z,12.15
2022-10-28T05:02:27.397Z,12.12
2022-10-28T05:05:00.283Z,12.06
2022-10-28T05:07:31.163Z,12.02
2022-10-28T05:09:59.548Z,12.00
2022-10-28T05:12:28.933Z,12.04
2022-10-28T05:14:58.108Z,12.06
2022-10-28T05:17:26.606Z,12.05
2022-10-28T05:19:55.626Z,12.04
2022-10-28T05:22:23.972Z,12.06
2022-10-28T05:24:54.192Z,12.04
2022-10-28T05:27:22.542Z,12.01
2022-10-28T05:29:51.406Z,12.03
2022-10-28T05:32:19.858Z,12.03
2022-10-28T05:34:48.662Z,12.00
2022-10-28T05:37:17.112Z,12.01
2022-10-28T05:39:45.901Z,12.00
2022-10-28T05:42:15.667Z,11.95
2022-10-28T05:44:44.494Z,11.94
2022-10-28T05:47:13.377Z,11.97
2022-10-28T05:49:41.821Z,11.93
2022-10-28T05:52:10.654Z,11.92
2022-10-28T05:54:39.583Z,11.87
2022-10-28T05:57:07.942Z,11.87
2022-10-28T05:59:39.090Z,11.90
2022-10-28T06:02:07.564Z,11.96
2022-10-28T06:04:36.551Z,11.98
2022-10-28T06:07:04.929Z,12.02
2022-10-28T06:09:34.306Z,12.04
2022-10-28T06:12:01.183Z,12.06
2022-10-28T06:14:30.115Z,12.07
2022-10-28T06:16:59.888Z,12.13
2022-10-28T06:19:29.350Z,12.12
2022-10-28T06:21:57.775Z,12.08
2022-10-28T06:24:26.614Z,12.06
2022-10-28T06:26:55.043Z,12.04
2022-10-28T06:29:24.318Z,12.11
2022-10-28T06:31:52.752Z,12.18
2022-10-28T06:34:23.368Z,12.21
2022-10-28T06:36:51.779Z,12.23
2022-10-28T06:39:20.565Z,12.23
2022-10-28T06:41:50.428Z,12.25
2022-10-28T06:44:19.152Z,12.29
2022-10-28T06:46:49.560Z,12.35
2022-10-28T06:49:17.934Z,12.40
2022-10-28T06:51:47.686Z,12.44
2022-10-28T06:54:16.175Z,12.49
2022-10-28T06:56:46.326Z,12.55
2022-10-28T06:59:14.799Z,12.54
2022-10-28T07:01:43.861Z,12.53
2022-10-28T07:04:13.794Z,12.59
2022-10-28T07:06:42.809Z,12.60
2022-10-28T07:09:15.059Z,12.67
2022-10-28T07:11:44.910Z,12.74
2022-10-28T07:14:13.686Z,12.81
2022-10-28T07:16:43.060Z,12.86
2022-10-28T07:19:12.017Z,12.93
2022-10-28T07:21:41.647Z,13.03
2022-10-28T07:24:11.372Z,13.08
2022-10-28T07:26:42.275Z,13.07
2022-10-28T07:29:11.993Z,13.07
2022-10-28T07:31:41.104Z,13.21
2022-10-28T07:34:11.119Z,13.30
2022-10-28T07:36:40.197Z,13.34
2022-10-28T07:39:12.046Z,13.42
2022-10-28T07:41:42.785Z,13.49
2022-10-28T07:44:13.615Z,13.47
2022-10-28T07:46:43.302Z,13.49
2022-10-28T07:49:12.971Z,13.60
2022-10-28T07:51:42.494Z,13.68
2022-10-28T07:54:12.617Z,13.84
2022-10-28T07:56:43.494Z,13.92
2022-10-28T07:59:13.759Z,14.02
2022-10-28T08:01:43.375Z,14.11
2022-10-28T08:04:13.574Z,14.19
2022-10-28T08:06:45.103Z,14.22
2022-10-28T08:09:15.290Z,14.28
2022-10-28T08:11:46.085Z,14.39
2022-10-28T08:14:16.707Z,14.46
2022-10-28T08:16:48.188Z,14.67
2022-10-28T08:19:17.317Z,14.97
2022-10-28T08:21:46.666Z,15.14
2022-10-28T08:24:15.810Z,15.28
2022-10-28T08:26:47.049Z,15.26
2022-10-28T08:29:17.108Z,15.26
2022-10-28T08:31:46.882Z,15.36
2022-10-28T08:34:16.147Z,15.71
2022-10-28T08:36:45.802Z,15.95
2022-10-28T08:39:15.099Z,16.02
2022-10-28T08:41:54.470Z,16.11
2022-10-28T08:44:47.681Z,16.30
2022-10-28T08:47:31.462Z,16.37
2022-10-28T08:50:06.459Z,16.47
2022-10-28T08:52:41.802Z,16.55
2022-10-28T08:55:18.375Z,16.61
2022-10-28T08:57:54.653Z,16.54
2022-10-28T09:00:26.704Z,16.46
2022-10-28T09:03:09.976Z,16.44
2022-10-28T09:05:40.250Z,16.55
2022-10-28T09:08:22.040Z,16.67
2022-10-28T09:11:12.440Z,16.75
2022-10-28T09:13:58.290Z,16.83
2022-10-28T09:16:39.914Z,16.99
2022-10-28T09:19:17.310Z,17.36
2022-10-28T09:21:52.204Z,17.62
2022-10-28T09:24:27.798Z,17.89
2022-10-28T09:27:03.010Z,18.16
2022-10-28T09:29:47.138Z,18.51
2022-10-28T09:32:28.881Z,18.82
2022-10-28T09:35:07.602Z,18.89
2022-10-28T09:37:43.094Z,18.78
2022-10-28T09:40:21.181Z,18.62
2022-10-28T09:43:01.920Z,18.48
2022-10-28T09:45:38.695Z,18.36
2022-10-28T09:48:20.245Z,18.35
2022-10-28T09:51:00.190Z,18.51
2022-10-28T09:53:43.660Z,18.55
2022-10-28T09:56:16.919Z,18.55
2022-10-28T09:58:50.405Z,18.59
2022-10-28T10:01:24.736Z,18.56
2022-10-28T10:03:55.864Z,18.49
2022-10-28T10:06:31.594Z,18.46
2022-10-28T10:09:03.169Z,18.58
2022-10-28T10:11:38.830Z,18.59
2022-10-28T10:14:11.350Z,18.66
2022-10-28T10:16:46.974Z,18.71
2022-10-28T10:19:16.667Z,18.70
2022-10-28T10:21:49.515Z,18.76
2022-10-28T10:24:32.565Z,18.81
2022-10-28T10:27:14.026Z,18.83
2022-10-28T10:29:47.488Z,18.94
2022-10-28T10:32:22.014Z,19.09
2022-10-28T10:35:01.866Z,19.42
2022-10-28T10:37:35.986Z,19.95
2022-10-28T10:40:19.153Z,20.62
2022-10-28T10:43:09.731Z,21.06
2022-10-28T10:45:39.995Z,21.23
2022-10-28T10:48:16.334Z,21.34
2022-10-28T10:50:48.316Z,21.62
2022-10-28T10:53:23.445Z,21.86
2022-10-28T10:55:56.896Z,22.16
2022-10-28T10:58:30.932Z,22.38
2022-10-28T11:01:04.284Z,22.72
2022-10-28T11:03:40.113Z,22.92
2022-10-28T11:06:24.400Z,23.04
2022-10-28T11:09:01.499Z,23.28
2022-10-28T11:11:37.181Z,23.63
2022-10-28T11:14:20.486Z,23.79
2022-10-28T11:16:54.841Z,24.06
2022-10-28T11:19:32.442Z,24.38
2022-10-28T11:22:16.637Z,24.57
2022-10-28T11:25:10.689Z,24.74
2022-10-28T11:27:56.328Z,24.92
2022-10-28T11:30:36.150Z,25.14
2022-10-28T11:33:29.594Z,25.30
2022-10-28T11:36:09.971Z,25.44
2022-10-28T11:38:57.078Z,25.36
2022-10-28T11:41:36.672Z,25.30
2022-10-28T11:44:18.251Z,25.26
2022-10-28T11:47:02.468Z,25.39
2022-10-28T11:50:04.177Z,25.55
2022-10-28T11:52:50.937Z,25.75
2022-10-28T11:55:30.195Z,26.07
2022-10-28T11:58:10.899Z,26.33
2022-10-28T12:00:50.056Z,26.54
2022-10-28T12:03:40.317Z,26.72
2022-10-28T12:06:17.776Z,26.70
2022-10-28T12:09:21.993Z,26.85
2022-10-28T12:12:03.617Z,27.02
2022-10-28T12:14:41.421Z,27.01
2022-10-28T12:17:15.210Z,26.72
2022-10-28T12:19:47.967Z,26.32
2022-10-28T12:22:23.792Z,26.34
2022-10-28T12:24:56.722Z,26.83
2022-10-28T12:27:29.220Z,27.38
2022-10-28T12:30:02.830Z,27.72
2022-10-28T12:32:34.752Z,28.02
2022-10-28T12:35:09.277Z,28.19
2022-10-28T12:37:44.810Z,27.61
2022-10-28T12:40:22.230Z,27.10
2022-10-28T12:42:56.431Z,26.71
2022-10-28T12:45:26.313Z,26.59
2022-10-28T12:48:01.755Z,26.45
2022-10-28T12:50:39.558Z,26.21
2022-10-28T12:53:25.592Z,25.90
2022-10-28T12:55:59.627Z,25.73
2022-10-28T12:58:33.658Z,25.62
2022-10-28T13:01:05.699Z,25.50
2022-10-28T13:03:34.671Z,25.35
2022-10-28T13:06:21.134Z,25.32
2022-10-28T13:09:33.277Z,25.25
2022-10-28T13:12:36.438Z,25.11
2022-10-28T13:15:30.767Z,25.01
2022-10-28T13:18:25.601Z,25.02
2022-10-28T13:21:06.812Z,24.97
2022-10-28T13:23:41.993Z,24.98
2022-10-28T13:26:22.539Z,25.03
2022-10-28T13:28:57.065Z,25.37
2022-10-28T13:31:41.338Z,25.54
2022-10-28T13:34:12.633Z,25.18
2022-10-28T13:36:43.438Z,25.32
2022-10-28T13:39:25.431Z,25.42
2022-10-28T13:42:32.299Z,25.92
2022-10-28T13:45:04.128Z,26.42
2022-10-28T13:47:33.566Z,26.79
2022-10-28T13:50:37.684Z,27.10
2022-10-28T13:53:38.537Z,27.27
2022-10-28T13:56:19.067Z,27.14
2022-10-28T13:58:55.997Z,27.13
2022-10-28T14:01:41.040Z,26.67
2022-10-28T14:04:28.915Z,26.43
2022-10-28T14:07:20.637Z,26.41
2022-10-28T14:09:52.554Z,26.37
2022-10-28T14:12:31.415Z,26.31
2022-10-28T14:15:03.900Z,26.22
2022-10-28T14:17:39.881Z,26.09
2022-10-28T14:20:23.519Z,26.08
2022-10-28T14:22:54.488Z,26.21
2022-10-28T14:26:01.640Z,26.37
2022-10-28T14:28:53.567Z,26.53
2022-10-28T14:31:43.844Z,26.79
2022-10-28T14:34:38.799Z,26.56
2022-10-28T14:37:33.687Z,26.26
2022-10-28T14:40:21.280Z,26.18
2022-10-28T14:43:02.757Z,25.87
2022-10-28T14:45:39.041Z,25.60
2022-10-28T14:48:38.343Z,25.51
2022-10-28T14:51:13.774Z,25.19
2022-10-28T14:53:44.340Z,25.10
2022-10-28T14:56:21.329Z,24.88
2022-10-28T14:58:51.125Z,24.69
2022-10-28T15:01:26.125Z,24.47
2022-10-28T15:03:57.912Z,24.37
2022-10-28T15:06:39.515Z,24.16
2022-10-28T15:09:17.380Z,23.82
2022-10-28T15:11:49.301Z,23.65
2022-10-28T15:14:27.602Z,23.59
2022-10-28T15:16:56.779Z,23.46
2022-10-28T15:19:27.807Z,23.33
2022-10-28T15:22:13.238Z,23.30
2022-10-28T15:24:44.762Z,23.23
2022-10-28T15:27:16.763Z,23.11
2022-10-28T15:29:45.250Z,23.04
2022-10-28T15:32:25.351Z,22.99
2022-10-28T15:34:53.997Z,22.72
2022-10-28T15:37:26.676Z,22.50
2022-10-28T15:40:12.672Z,22.38
2022-10-28T15:42:45.895Z,22.28
2022-10-28T15:45:20.202Z,22.11
2022-10-28T15:47:50.471Z,22.01
2022-10-28T15:50:29.035Z,21.98
2022-10-28T15:53:32.323Z,21.93
2022-10-28T15:56:10.811Z,21.73
2022-10-28T15:58:41.208Z,21.72
2022-10-28T16:01:11.749Z,21.71
2022-10-28T16:03:46.394Z,21.60
2022-10-28T16:06:24.642Z,21.50
2022-10-28T16:09:20.426Z,21.37
2022-10-28T16:11:51.633Z,21.36
2022-10-28T16:14:35.929Z,21.35
2022-10-28T16:19:42.585Z,21.05
2022-10-28T16:22:14.670Z,20.99
2022-10-28T16:24:44.493Z,20.96
2022-10-28T16:27:21.331Z,20.98
2022-10-28T16:29:50.349Z,20.93
2022-10-28T16:32:27.809Z,20.86
2022-10-28T16:34:57.024Z,20.79
2022-10-28T16:37:27.690Z,20.68
2022-10-28T16:39:58.857Z,20.54
2022-10-28T16:42:28.200Z,20.29
2022-10-28T16:44:56.608Z,20.37
2022-10-28T16:47:26.741Z,20.30
2022-10-28T16:49:57.424Z,20.17
2022-10-28T16:52:29.177Z,19.99
2022-10-28T16:54:59.640Z,19.95
2022-10-28T16:57:28.500Z,19.90
2022-10-28T16:59:56.848Z,19.90
2022-10-28T17:02:29.047Z,19.89
2022-10-28T17:04:58.479Z,19.90
2022-10-28T17:07:27.487Z,19.93
2022-10-28T17:09:56.907Z,19.91
2022-10-28T17:12:28.285Z,19.88
2022-10-28T17:14:56.699Z,19.90
2022-10-28T17:17:25.172Z,19.98
2022-10-28T17:19:53.673Z,20.04
2022-10-28T17:22:22.550Z,20.07
2022-10-28T17:24:51.057Z,20.04
2022-10-28T17:27:19.446Z,20.04
2022-10-28T17:29:49.605Z,20.04
2022-10-28T17:32:18.792Z,20.05
2022-10-28T17:34:47.762Z,20.04
2022-10-28T17:37:16.606Z,20.04
2022-10-28T17:39:45.032Z,19.99
2022-10-28T17:42:14.403Z,19.97
2022-10-28T17:44:42.809Z,19.96
2022-10-28T17:47:13.293Z,19.91
2022-10-28T17:49:42.164Z,19.85
2022-10-28T17:52:10.585Z,19.85
2022-10-28T17:54:38.971Z,19.81
2022-10-28T17:57:07.436Z,19.78
2022-10-28T17:59:35.862Z,19.68
2022-10-28T18:02:04.608Z,19.57
2022-10-28T18:04:35.020Z,19.56
2022-10-28T18:07:03.400Z,19.49
2022-10-28T18:09:32.906Z,19.48
2022-10-28T18:12:03.018Z,19.48
2022-10-28T18:14:32.409Z,19.44
2022-10-28T18:17:00.936Z,19.38
2022-10-28T18:19:30.008Z,19.29
2022-10-28T18:21:59.814Z,19.24
2022-10-28T18:24:28.622Z,19.21
2022-10-28T18:26:57.806Z,19.18
2022-10-28T18:29:26.845Z,19.14
2022-10-28T18:31:56.711Z,19.06
2022-10-28T18:34:26.128Z,18.95
2022-10-28T18:36:54.722Z,18.88
2022-10-28T18:39:25.115Z,18.82
2022-10-28T18:41:53.634Z,18.79
2022-10-28T18:44:27.561Z,18.79
2022-10-28T18:46:56.082Z,18.73
2022-10-28T18:49:25.607Z,18.73
2022-10-28T18:51:54.164Z,18.74
2022-10-28T18:54:25.317Z,18.70
2022-10-28T18:56:57.579Z,18.65
2022-10-28T18:59:26.982Z,18.56
2022-10-28T19:01:55.714Z,18.57
2022-10-28T19:04:25.757Z,18.44
2022-10-28T19:06:54.373Z,18.38
2022-10-28T19:09:25.011Z,18.29
2022-10-28T19:11:53.688Z,18.21
2022-10-28T19:14:23.527Z,18.14
2022-10-28T19:16:52.111Z,18.10
2022-10-28T19:19:21.301Z,18.04
2022-10-28T19:21:51.219Z,17.96
2022-10-28T19:24:19.872Z,17.97
2022-10-28T19:26:49.943Z,17.80
2022-10-28T19:29:18.716Z,17.81
2022-10-28T19:31:47.223Z,17.83
2022-10-28T19:34:15.667Z,17.78
2022-10-28T19:36:44.314Z,17.83
2022-10-28T19:39:12.789Z,17.85
2022-10-28T19:41:41.600Z,17.83
2022-10-28T19:44:11.281Z,17.81
2022-10-28T19:46:40.333Z,17.76
2022-10-28T19:49:08.858Z,17.72
2022-10-28T19:51:40.036Z,17.71
2022-10-28T19:54:12.057Z,17.73
2022-10-28T19:56:42.654Z,17.68
2022-10-28T19:59:13.232Z,17.71
2022-10-28T20:01:42.230Z,17.64
2022-10-28T20:04:11.982Z,17.59
2022-10-28T20:06:41.785Z,17.58
2022-10-28T20:09:11.139Z,17.52
2022-10-28T20:11:40.712Z,17.57
2022-10-28T20:14:11.745Z,17.58
2022-10-28T20:16:44.303Z,17.56
2022-10-28T20:19:13.056Z,17.58
2022-10-28T20:21:42.328Z,17.55
2022-10-28T20:24:10.723Z,17.57
2022-10-28T20:26:40.024Z,17.55
2022-10-28T20:29:10.391Z,17.50
2022-10-28T20:31:39.780Z,17.51
2022-10-28T20:34:09.982Z,17.52
2022-10-28T20:36:40.216Z,17.47
2022-10-28T20:39:14.025Z,17.45
2022-10-28T20:41:44.318Z,17.41
2022-10-28T20:44:13.671Z,17.38
2022-10-28T20:46:42.408Z,17.48
2022-10-28T20:49:13.656Z,17.43
2022-10-28T20:51:42.973Z,17.35
2022-10-28T20:54:12.378Z,17.25
2022-10-28T20:56:42.207Z,17.28
2022-10-28T20:59:10.683Z,17.29
2022-10-28T21:01:41.414Z,17.11
2022-10-28T21:04:12.321Z,17.02
2022-10-28T21:06:41.477Z,17.09
2022-10-28T21:09:11.672Z,17.07
2022-10-28T21:11:40.486Z,16.90
2022-10-28T21:14:09.623Z,16.88
2022-10-28T21:16:38.455Z,16.93
2022-10-28T21:19:06.820Z,17.04
2022-10-28T21:21:36.809Z,17.08
2022-10-28T21:24:07.175Z,17.08
2022-10-28T21:26:35.574Z,17.12
2022-10-28T21:29:04.761Z,17.13
2022-10-28T21:31:33.585Z,17.15
2022-10-28T21:34:04.407Z,17.12
2022-10-28T21:36:38.510Z,17.13
2022-10-28T21:39:07.322Z,17.12
2022-10-28T21:41:35.880Z,17.05
2022-10-28T21:44:06.023Z,17.04
2022-10-28T21:46:35.119Z,17.06
2022-10-28T21:49:03.993Z,17.00
2022-10-28T21:51:32.358Z,16.96
2022-10-28T21:54:02.532Z,16.97
2022-10-28T21:56:30.922Z,16.95
2022-10-28T21:59:00.120Z,16.98
2022-10-28T22:01:28.914Z,16.94
2022-10-28T22:03:58.135Z,16.95
2022-10-28T22:06:26.496Z,16.95
2022-10-28T22:08:56.381Z,16.91
2022-10-28T22:11:26.846Z,16.88
2022-10-28T22:13:58.086Z,16.90
2022-10-28T22:16:28.756Z,16.89
2022-10-28T22:18:59.356Z,16.87
2022-10-28T22:21:31.002Z,16.85
2022-10-28T22:23:59.362Z,16.84
2022-10-28T22:26:31.329Z,16.85
2022-10-28T22:29:00.210Z,16.84
2022-10-28T22:31:31.700Z,16.84
2022-10-28T22:34:01.033Z,16.81
2022-10-28T22:36:31.100Z,16.78
2022-10-28T22:38:59.636Z,16.76
2022-10-28T22:41:31.346Z,16.70
2022-10-28T22:44:01.884Z,16.63
2022-10-28T22:46:33.413Z,16.61
2022-10-28T22:49:02.570Z,16.60
2022-10-28T22:51:31.203Z,16.57
2022-10-28T22:54:00.922Z,16.52
2022-10-28T22:56:30.717Z,16.44
2022-10-28T22:59:01.584Z,16.43
2022-10-28T23:01:31.194Z,16.35
2022-10-28T23:04:00.919Z,16.45
2022-10-28T23:06:30.524Z,16.42
2022-10-28T23:08:59.600Z,16.35
2022-10-28T23:11:28.068Z,16.32
2022-10-28T23:13:58.171Z,16.31
2022-10-28T23:16:26.630Z,16.30
2022-10-28T23:18:56.049Z,16.20
2022-10-28T23:21:26.115Z,16.14
2022-10-28T23:23:56.081Z,16.10
2022-10-28T23:26:25.351Z,16.00
2022-10-28T23:28:57.024Z,16.06
2022-10-28T23:31:28.089Z,16.13
2022-10-28T23:33:58.808Z,16.17
2022-10-28T23:36:27.255Z,16.16
2022-10-28T23:38:57.931Z,16.03
2022-10-28T23:41:26.373Z,16.00
2022-10-28T23:43:55.532Z,15.97
2022-10-28T23:46:25.013Z,15.95
2022-10-28T23:48:55.124Z,15.93
2022-10-28T23:51:23.553Z,15.89
2022-10-28T23:53:51.913Z,15.87
2022-10-28T23:56:21.019Z,15.85
2022-10-28T23:58:49.825Z,15.80
